Time;durP1;ratioP1;P1;durP2;ratioP2;P2;SDS_P1;SDS_P2;PMS_P1;PMS_P2;Temp;Humidity;BMP_temperature;BMP_pressure;BME280_temperature;BME280_humidity;BME280_pressure;Samples;Min_cycle;Max_cycle;Signal;HPM_P1;HPM_P2
2023/12/07 00:00:31;;;;;;;15.88;11.02;;;7.20;96.70;;;;;;4882732;29;20052;-58
2023/12/07 00:03:00;;;;;;;15.85;11.60;;;7.20;96.70;;;;;;4877537;29;20131;-58
2023/12/07 00:05:29;;;;;;;14.18;10.73;;;7.20;96.70;;;;;;4884121;29;20099;-56
2023/12/07 00:07:59;;;;;;;12.68;9.38;;;7.10;96.70;;;;;;4882007;29;20041;-58
2023/12/07 00:10:27;;;;;;;13.68;10.25;;;7.10;96.70;;;;;;4896417;29;20100;-59
2023/12/07 00:12:57;;;;;;;14.43;10.35;;;7.10;96.70;;;;;;4880873;29;20041;-58
2023/12/07 00:15:27;;;;;;;14.93;10.38;;;7.10;96.70;;;;;;4879631;29;20111;-59
2023/12/07 00:17:56;;;;;;;15.05;9.93;;;7.10;96.70;;;;;;4896393;29;20510;-59
2023/12/07 00:20:25;;;;;;;15.00;9.98;;;7.10;96.70;;;;;;4867033;29;20071;-59
2023/12/07 00:22:54;;;;;;;12.55;9.27;;;7.10;96.70;;;;;;4868541;29;20108;-59
2023/12/07 00:25:23;;;;;;;14.80;10.07;;;7.10;96.70;;;;;;4885362;29;20047;-58
2023/12/07 00:27:52;;;;;;;12.93;9.52;;;7.10;96.70;;;;;;4881198;29;20087;-59
2023/12/07 00:30:20;;;;;;;12.88;9.50;;;7.00;96.70;;;;;;4882994;29;20055;-59
2023/12/07 00:32:49;;;;;;;14.60;10.32;;;7.10;96.70;;;;;;4882035;29;20052;-58
2023/12/07 00:35:21;;;;;;;13.82;10.05;;;7.00;96.70;;;;;;4871353;29;20139;-59
2023/12/07 00:37:50;;;;;;;13.25;9.52;;;7.10;96.70;;;;;;4878786;29;20107;-58
2023/12/07 00:40:18;;;;;;;13.45;9.50;;;7.00;96.70;;;;;;4878617;29;20040;-58
2023/12/07 00:42:49;;;;;;;11.85;9.05;;;7.00;96.70;;;;;;4880648;29;20048;-59
2023/12/07 00:45:19;;;;;;;14.32;9.65;;;7.10;96.70;;;;;;4877527;29;20412;-59
2023/12/07 00:47:49;;;;;;;13.75;9.82;;;7.00;96.70;;;;;;4881068;29;20052;-58
2023/12/07 00:50:18;;;;;;;15.48;9.98;;;7.00;96.70;;;;;;4883023;29;20051;-58
2023/12/07 00:52:49;;;;;;;13.82;9.25;;;7.10;96.70;;;;;;4874895;29;20111;-58
2023/12/07 00:55:18;;;;;;;13.15;9.77;;;7.10;96.70;;;;;;4871956;29;20059;-58
2023/12/07 00:57:48;;;;;;;12.82;9.20;;;7.10;96.70;;;;;;4882367;29;20114;-59
2023/12/07 01:00:20;;;;;;;15.93;10.88;;;7.20;96.70;;;;;;4895198;29;20484;-58
2023/12/07 01:02:48;;;;;;;18.73;10.13;;;7.10;96.70;;;;;;4878756;29;20142;-59
2023/12/07 01:05:16;;;;;;;14.05;9.40;;;7.10;96.70;;;;;;4893121;29;20499;-59
2023/12/07 01:07:44;;;;;;;14.00;10.05;;;7.10;96.70;;;;;;4875890;29;20056;-59
2023/12/07 01:10:16;;;;;;;15.50;10.23;;;7.00;96.70;;;;;;4876112;29;20059;-58
2023/12/07 01:12:46;;;;;;;13.13;9.15;;;7.00;96.70;;;;;;4877477;29;20055;-58
2023/12/07 01:15:17;;;;;;;15.23;10.30;;;7.00;96.70;;;;;;4856795;29;20061;-59
2023/12/07 01:17:46;;;;;;;13.77;9.60;;;7.00;96.70;;;;;;4841619;29;20479;-59
2023/12/07 01:20:17;;;;;;;13.65;8.57;;;7.00;96.70;;;;;;4848253;29;20055;-59
2023/12/07 01:22:45;;;;;;;13.52;9.10;;;7.00;96.70;;;;;;4848381;29;20052;-59
2023/12/07 01:25:21;;;;;;;13.95;9.85;;;7.00;96.70;;;;;;4861796;29;20176;-59
2023/12/07 01:27:51;;;;;;;14.27;10.20;;;7.00;96.70;;;;;;4877744;29;20052;-59
2023/12/07 01:30:22;;;;;;;13.38;10.07;;;6.90;96.70;;;;;;4863969;29;20633;-59
2023/12/07 01:33:10;;;;;;;13.48;9.05;;;6.90;96.70;;;;;;4874187;29;20048;-59
2023/12/07 01:35:39;;;;;;;13.73;9.57;;;6.90;96.70;;;;;;4873351;29;20040;-59
2023/12/07 01:38:07;;;;;;;13.93;8.60;;;6.90;96.70;;;;;;4886138;29;20055;-59
2023/12/07 01:40:35;;;;;;;12.65;8.35;;;6.90;96.70;;;;;;4861658;29;20095;-59
2023/12/07 01:43:04;;;;;;;12.05;7.97;;;7.00;96.70;;;;;;4854152;29;20053;-59
2023/12/07 01:45:34;;;;;;;13.80;9.45;;;6.90;96.70;;;;;;4877513;29;20123;-59
2023/12/07 01:48:08;;;;;;;14.38;9.60;;;6.90;96.70;;;;;;4862965;29;20052;-59
2023/12/07 01:50:37;;;;;;;14.45;9.77;;;6.80;96.70;;;;;;4851867;29;20554;-59
2023/12/07 01:53:08;;;;;;;13.68;9.65;;;6.90;96.70;;;;;;4848838;29;20145;-59
2023/12/07 01:55:37;;;;;;;12.50;8.65;;;6.90;96.70;;;;;;4895542;29;20036;-59
2023/12/07 01:58:09;;;;;;;14.32;9.60;;;6.80;96.70;;;;;;4915023;29;20099;-59
2023/12/07 02:00:40;;;;;;;14.15;10.05;;;6.90;96.70;;;;;;4901525;29;20064;-59
2023/12/07 02:03:09;;;;;;;14.90;10.40;;;6.90;96.70;;;;;;4906805;29;20067;-58
2023/12/07 02:05:37;;;;;;;17.08;10.65;;;6.90;96.70;;;;;;4890271;29;20069;-58
2023/12/07 02:08:06;;;;;;;16.08;11.02;;;6.90;96.70;;;;;;4905832;29;20060;-59
2023/12/07 02:10:37;;;;;;;17.13;11.10;;;6.90;96.70;;;;;;4895416;29;20143;-58
2023/12/07 02:13:06;;;;;;;17.33;11.35;;;6.90;96.70;;;;;;4898711;29;20687;-58
2023/12/07 02:15:35;;;;;;;15.43;10.90;;;6.90;96.70;;;;;;4918582;29;20091;-59
2023/12/07 02:18:15;;;;;;;15.65;10.98;;;7.00;96.70;;;;;;4896509;29;20134;-59
2023/12/07 02:20:52;;;;;;;17.25;11.18;;;7.00;96.70;;;;;;4875962;29;20485;-59
2023/12/07 02:23:25;;;;;;;15.30;10.35;;;7.00;96.70;;;;;;4865238;29;20191;-59
2023/12/07 02:26:34;;;;;;;15.73;10.95;;;6.90;96.70;;;;;;4870331;29;20068;-59
2023/12/07 02:29:03;;;;;;;15.48;10.07;;;6.90;96.70;;;;;;4868089;29;20056;-59
2023/12/07 02:31:31;;;;;;;15.90;10.43;;;6.90;96.70;;;;;;4864344;29;20108;-59
2023/12/07 02:34:00;;;;;;;14.77;10.45;;;7.00;96.70;;;;;;4862591;29;20053;-59
2023/12/07 02:36:32;;;;;;;13.40;9.77;;;6.90;96.70;;;;;;4866792;29;20072;-59
2023/12/07 02:39:03;;;;;;;14.70;9.95;;;6.80;96.70;;;;;;4863449;29;20052;-59
2023/12/07 02:41:33;;;;;;;12.82;9.40;;;6.90;96.70;;;;;;4880269;29;20069;-59
2023/12/07 02:44:02;;;;;;;13.73;9.65;;;6.80;96.70;;;;;;4864863;29;20049;-59
2023/12/07 02:46:33;;;;;;;13.98;9.63;;;6.80;96.70;;;;;;4865227;29;20551;-58
2023/12/07 02:49:02;;;;;;;13.35;9.35;;;6.70;96.70;;;;;;4852558;29;20045;-59
2023/12/07 02:51:31;;;;;;;14.02;9.23;;;6.70;96.70;;;;;;4865557;29;20100;-58
2023/12/07 02:53:59;;;;;;;13.80;9.55;;;6.60;96.70;;;;;;4867138;29;20130;-59
2023/12/07 02:56:28;;;;;;;14.10;9.73;;;6.50;96.70;;;;;;4877809;29;20041;-59
2023/12/07 02:58:58;;;;;;;12.40;8.40;;;6.60;96.70;;;;;;4862279;29;20064;-58
2023/12/07 03:01:27;;;;;;;14.05;9.43;;;6.70;96.70;;;;;;4887669;29;20056;-59
2023/12/07 03:03:58;;;;;;;14.32;9.02;;;6.70;96.70;;;;;;4915317;29;20103;-58
2023/12/07 03:06:28;;;;;;;14.57;10.00;;;6.70;96.70;;;;;;4903030;29;20048;-58
2023/12/07 03:08:56;;;;;;;12.35;8.45;;;6.60;96.70;;;;;;4889442;29;20048;-58
2023/12/07 03:11:25;;;;;;;12.90;8.32;;;6.50;96.70;;;;;;4911762;29;20068;-58
2023/12/07 03:13:53;;;;;;;12.82;8.27;;;6.50;96.70;;;;;;4899403;29;20420;-58
2023/12/07 03:16:24;;;;;;;13.35;8.60;;;6.50;96.70;;;;;;4884731;29;20048;-58
2023/12/07 03:18:52;;;;;;;11.88;8.20;;;6.50;96.70;;;;;;4881057;29;20177;-58
2023/12/07 03:24:25;;;;;;;12.57;8.95;;;6.50;96.70;;;;;;5295346;23;20142;-65
2023/12/07 03:26:54;;;;;;;12.05;7.72;;;6.50;96.70;;;;;;4911311;29;20052;-66
2023/12/07 03:29:24;;;;;;;11.13;7.53;;;6.40;96.70;;;;;;4861863;29;20053;-66
2023/12/07 03:31:54;;;;;;;10.20;6.65;;;6.40;96.70;;;;;;4854206;29;20132;-66
2023/12/07 03:34:23;;;;;;;10.10;6.38;;;6.30;96.70;;;;;;4852074;29;20086;-66
2023/12/07 03:36:51;;;;;;;10.15;7.00;;;6.40;96.70;;;;;;4845587;29;20127;-66
2023/12/07 03:39:22;;;;;;;10.93;6.97;;;6.40;96.70;;;;;;4861356;29;20056;-66
2023/12/07 03:41:50;;;;;;;11.68;6.97;;;6.40;96.70;;;;;;4856551;29;20117;-66
2023/12/07 03:44:21;;;;;;;9.32;6.68;;;6.30;96.70;;;;;;4849083;29;20512;-66
2023/12/07 03:46:49;;;;;;;11.30;6.35;;;6.30;96.70;;;;;;4844323;29;20053;-66
2023/12/07 03:49:20;;;;;;;10.00;6.38;;;6.40;96.70;;;;;;4846839;29;20053;-66
2023/12/07 03:51:50;;;;;;;11.85;7.32;;;6.40;96.70;;;;;;4867753;29;20067;-66
2023/12/07 03:54:18;;;;;;;10.82;6.35;;;6.50;96.70;;;;;;4860346;29;20063;-66
2023/12/07 03:56:47;;;;;;;9.57;6.00;;;6.40;96.70;;;;;;4848465;29;20558;-65
2023/12/07 03:59:16;;;;;;;9.48;6.78;;;6.40;96.70;;;;;;4865916;29;20104;-66
2023/12/07 04:01:44;;;;;;;9.93;7.07;;;6.30;96.70;;;;;;4878101;29;20400;-66
2023/12/07 04:04:14;;;;;;;10.15;6.55;;;6.20;96.70;;;;;;4868908;29;20044;-66
2023/12/07 04:06:45;;;;;;;9.85;6.50;;;6.30;96.70;;;;;;4842161;29;20044;-66
2023/12/07 04:09:17;;;;;;;10.75;6.07;;;6.30;96.70;;;;;;4916711;29;20082;-66
2023/12/07 04:11:46;;;;;;;9.68;5.93;;;6.40;96.70;;;;;;4880591;29;20060;-65
2023/12/07 04:14:16;;;;;;;9.43;5.55;;;6.40;96.70;;;;;;4914963;29;20783;-66
2023/12/07 04:16:48;;;;;;;7.65;4.82;;;6.40;96.70;;;;;;4883372;29;20107;-66
2023/12/07 04:19:16;;;;;;;6.95;4.55;;;6.30;96.70;;;;;;4884643;29;20048;-66
2023/12/07 04:21:48;;;;;;;6.45;4.80;;;6.30;96.70;;;;;;4894537;29;20080;-66
2023/12/07 04:24:18;;;;;;;7.78;4.85;;;6.30;96.70;;;;;;4890133;29;20052;-66
2023/12/07 04:26:46;;;;;;;8.02;5.15;;;6.40;96.70;;;;;;4896301;29;20148;-66
2023/12/07 04:29:15;;;;;;;9.25;5.70;;;6.30;96.70;;;;;;4907900;29;20181;-66
2023/12/07 04:31:44;;;;;;;8.45;5.35;;;6.40;96.70;;;;;;4912010;29;20043;-66
2023/12/07 04:34:12;;;;;;;7.85;4.95;;;6.40;96.70;;;;;;4913190;29;20051;-66
2023/12/07 04:36:41;;;;;;;6.95;4.68;;;6.50;96.70;;;;;;4913172;29;20052;-66
2023/12/07 04:39:12;;;;;;;9.20;5.68;;;6.40;96.70;;;;;;4899376;29;20523;-67
2023/12/07 04:41:41;;;;;;;8.45;5.47;;;6.40;96.70;;;;;;4901243;29;20515;-66
2023/12/07 04:44:10;;;;;;;9.35;5.72;;;6.40;96.70;;;;;;4907740;29;20047;-65
2023/12/07 04:46:39;;;;;;;8.48;5.05;;;6.40;96.70;;;;;;4895854;29;20139;-66
2023/12/07 04:49:07;;;;;;;8.35;5.07;;;6.40;96.70;;;;;;4900722;29;20406;-66
2023/12/07 04:51:36;;;;;;;8.82;5.88;;;6.50;96.70;;;;;;4893085;29;20059;-66
2023/12/07 04:54:04;;;;;;;9.73;5.93;;;6.40;96.70;;;;;;4899020;29;20051;-66
2023/12/07 04:56:47;;;;;;;11.15;6.38;;;6.30;96.70;;;;;;4902746;29;20054;-66
2023/12/07 04:59:17;;;;;;;9.38;6.07;;;6.20;96.70;;;;;;4882829;29;20056;-66
2023/12/07 05:01:47;;;;;;;10.70;6.15;;;6.20;96.70;;;;;;4895203;29;20064;-66
2023/12/07 05:04:16;;;;;;;8.73;5.82;;;6.30;96.70;;;;;;4898952;29;20431;-66
2023/12/07 05:06:44;;;;;;;9.20;6.10;;;6.30;96.70;;;;;;4890053;29;20048;-67
2023/12/07 05:09:13;;;;;;;9.27;6.47;;;6.40;96.70;;;;;;4904320;29;20044;-67
2023/12/07 05:11:42;;;;;;;10.45;7.22;;;6.40;96.70;;;;;;4892455;29;20048;-67
2023/12/07 05:14:12;;;;;;;10.85;7.38;;;6.40;96.70;;;;;;4889148;29;20054;-67
2023/12/07 05:16:41;;;;;;;9.30;6.20;;;6.40;96.70;;;;;;4897462;29;20063;-67
2023/12/07 05:19:10;;;;;;;11.00;7.20;;;6.40;96.70;;;;;;4909868;29;20127;-67
2023/12/07 05:21:39;;;;;;;10.38;7.18;;;6.40;96.70;;;;;;4900931;29;20413;-67
2023/12/07 05:24:09;;;;;;;11.60;7.03;;;6.40;96.70;;;;;;4916536;29;20063;-67
2023/12/07 05:26:38;;;;;;;9.75;7.07;;;6.40;96.70;;;;;;4916281;29;20414;-67
2023/12/07 05:29:07;;;;;;;11.73;6.75;;;6.40;96.70;;;;;;4910570;29;20048;-67
2023/12/07 05:31:38;;;;;;;10.50;7.88;;;6.40;96.70;;;;;;4891434;29;20074;-70
2023/12/07 05:34:07;;;;;;;11.30;7.15;;;6.30;96.70;;;;;;4900956;29;20088;-67
2023/12/07 05:36:37;;;;;;;13.63;8.65;;;6.40;96.70;;;;;;4888764;29;20059;-67
2023/12/07 05:39:07;;;;;;;11.52;7.75;;;6.40;96.70;;;;;;4909573;29;20088;-67
2023/12/07 05:41:35;;;;;;;12.07;8.15;;;6.50;96.70;;;;;;4891793;29;20100;-67
2023/12/07 05:44:04;;;;;;;12.30;7.82;;;6.50;96.70;;;;;;4895697;29;20514;-68
2023/12/07 05:46:35;;;;;;;9.32;7.03;;;6.50;96.70;;;;;;4892531;29;20052;-67
2023/12/07 05:49:07;;;;;;;11.70;7.70;;;6.50;96.70;;;;;;4881086;29;20099;-70
2023/12/07 05:51:36;;;;;;;10.75;7.65;;;6.50;96.70;;;;;;4892681;29;20178;-68
2023/12/07 05:54:05;;;;;;;11.13;7.75;;;6.50;96.70;;;;;;4898294;29;20045;-67
2023/12/07 05:56:34;;;;;;;11.52;8.40;;;6.50;96.70;;;;;;4888567;29;20048;-68
2023/12/07 05:59:02;;;;;;;12.45;7.35;;;6.50;96.70;;;;;;4898124;29;20383;-67
2023/12/07 06:01:31;;;;;;;13.68;8.70;;;6.50;96.70;;;;;;4891966;29;20068;-67
2023/12/07 06:04:00;;;;;;;11.20;8.05;;;6.50;96.70;;;;;;4897054;29;20062;-67
2023/12/07 06:06:32;;;;;;;11.18;7.40;;;6.50;96.70;;;;;;4855823;29;20048;-67
2023/12/07 06:09:01;;;;;;;10.90;7.95;;;6.50;96.70;;;;;;4882461;29;20427;-67
2023/12/07 06:11:30;;;;;;;9.20;6.65;;;6.50;96.70;;;;;;4890673;29;20463;-67
2023/12/07 06:13:59;;;;;;;13.13;7.30;;;6.50;96.70;;;;;;4897228;29;20056;-67
2023/12/07 06:16:28;;;;;;;10.93;7.25;;;6.50;96.70;;;;;;4910515;29;20446;-68
2023/12/07 06:18:57;;;;;;;11.43;7.05;;;6.50;96.70;;;;;;4896307;29;20052;-67
2023/12/07 06:21:29;;;;;;;9.75;6.97;;;6.50;96.70;;;;;;4896102;29;20147;-67
2023/12/07 06:24:01;;;;;;;11.05;7.70;;;6.50;96.70;;;;;;4882342;29;20059;-69
2023/12/07 06:26:31;;;;;;;9.98;6.80;;;6.50;96.70;;;;;;4909590;29;20395;-67
2023/12/07 06:29:00;;;;;;;10.77;7.38;;;6.50;96.70;;;;;;4889238;29;20059;-67
2023/12/07 06:31:29;;;;;;;10.57;7.38;;;6.40;96.70;;;;;;4912153;29;20040;-67
2023/12/07 06:34:01;;;;;;;10.98;6.75;;;6.50;96.70;;;;;;4896552;29;20225;-67
2023/12/07 06:36:29;;;;;;;9.48;6.90;;;6.50;96.70;;;;;;4891420;29;20052;-67
2023/12/07 06:39:00;;;;;;;10.18;6.55;;;6.50;96.70;;;;;;4894268;29;20052;-67
2023/12/07 06:41:28;;;;;;;10.55;7.32;;;6.30;96.70;;;;;;4886917;29;20048;-67
2023/12/07 06:43:57;;;;;;;10.32;6.82;;;6.30;96.70;;;;;;4906790;29;20055;-68
2023/12/07 06:46:26;;;;;;;10.98;6.82;;;6.30;96.70;;;;;;4904527;29;20095;-67
2023/12/07 06:48:56;;;;;;;10.70;7.15;;;6.40;96.70;;;;;;4896913;29;20154;-68
2023/12/07 06:51:25;;;;;;;12.88;8.73;;;6.30;96.70;;;;;;4896333;29;20071;-68
2023/12/07 06:53:56;;;;;;;12.02;7.55;;;6.30;96.70;;;;;;4919823;29;20057;-68
2023/12/07 06:56:26;;;;;;;12.55;7.50;;;6.30;96.70;;;;;;4898390;29;20051;-67
2023/12/07 06:58:56;;;;;;;12.13;7.43;;;6.40;96.70;;;;;;4900959;29;20164;-69
2023/12/07 07:01:25;;;;;;;10.95;7.20;;;6.40;96.70;;;;;;4913700;29;20509;-68
2023/12/07 07:03:54;;;;;;;10.98;7.15;;;6.30;96.70;;;;;;4916542;29;20056;-69
2023/12/07 07:06:22;;;;;;;11.73;7.95;;;6.30;96.70;;;;;;4881109;29;20040;-70
2023/12/07 07:08:51;;;;;;;13.52;7.50;;;6.30;96.70;;;;;;4919667;29;20110;-68
2023/12/07 07:11:22;;;;;;;9.85;6.70;;;6.40;96.70;;;;;;4894671;29;20090;-68
2023/12/07 07:13:54;;;;;;;12.35;7.30;;;6.40;96.70;;;;;;4915111;29;20047;-68
2023/12/07 07:16:23;;;;;;;11.75;7.55;;;6.40;96.70;;;;;;4898856;29;20067;-67
2023/12/07 07:18:53;;;;;;;13.77;8.07;;;6.50;96.70;;;;;;4913342;29;20099;-66
2023/12/07 07:21:22;;;;;;;10.45;6.63;;;6.50;96.70;;;;;;4899797;29;20056;-65
2023/12/07 07:23:51;;;;;;;11.32;7.10;;;6.40;96.70;;;;;;4884376;29;20056;-66
2023/12/07 07:26:22;;;;;;;10.18;7.20;;;6.40;96.70;;;;;;4893235;29;20060;-66
2023/12/07 07:28:52;;;;;;;12.65;7.20;;;6.30;96.70;;;;;;4911032;29;20056;-66
2023/12/07 07:31:21;;;;;;;12.48;7.10;;;6.40;96.70;;;;;;4891726;29;20138;-66
2023/12/07 07:33:51;;;;;;;12.25;7.43;;;6.40;96.70;;;;;;4912056;29;20056;-65
2023/12/07 07:36:32;;;;;;;10.75;6.47;;;6.40;96.70;;;;;;4896804;29;20052;-66
2023/12/07 07:39:00;;;;;;;10.75;6.43;;;6.30;96.70;;;;;;4906624;29;20059;-66
2023/12/07 07:41:31;;;;;;;11.50;7.30;;;6.30;96.70;;;;;;4895489;29;20052;-65
2023/12/07 07:44:02;;;;;;;11.18;7.07;;;6.40;96.70;;;;;;4900009;29;20052;-65
2023/12/07 07:46:33;;;;;;;11.43;7.05;;;6.40;96.70;;;;;;4893915;29;20052;-65
2023/12/07 07:49:03;;;;;;;10.35;7.05;;;6.40;96.70;;;;;;4906309;29;20070;-65
2023/12/07 07:51:32;;;;;;;11.25;7.22;;;6.40;96.70;;;;;;4896650;29;20057;-65
2023/12/07 07:54:02;;;;;;;10.65;7.15;;;6.40;96.70;;;;;;4929669;29;20047;-65
2023/12/07 07:56:31;;;;;;;10.52;6.97;;;6.40;96.70;;;;;;4880773;29;20554;-68
2023/12/07 07:59:01;;;;;;;10.50;7.10;;;6.40;96.70;;;;;;4898304;29;20048;-67
2023/12/07 08:01:31;;;;;;;10.45;6.15;;;6.40;96.70;;;;;;4889346;29;20780;-67
2023/12/07 08:04:00;;;;;;;10.63;7.30;;;6.50;96.70;;;;;;4870062;29;20094;-67
2023/12/07 08:06:29;;;;;;;9.43;6.40;;;6.50;96.70;;;;;;4893028;29;20048;-68
2023/12/07 08:09:00;;;;;;;9.50;6.85;;;6.50;96.70;;;;;;4889050;29;20079;-68
2023/12/07 08:11:32;;;;;;;11.90;7.22;;;6.40;96.70;;;;;;4879997;29;20056;-68
2023/12/07 08:14:02;;;;;;;12.07;7.53;;;6.50;96.70;;;;;;4896515;29;20059;-68
2023/12/07 08:16:31;;;;;;;11.75;7.03;;;6.50;96.70;;;;;;4869166;29;20051;-68
2023/12/07 08:19:00;;;;;;;10.80;6.50;;;6.50;96.70;;;;;;4902500;29;20044;-68
2023/12/07 08:21:29;;;;;;;10.65;6.80;;;6.50;96.70;;;;;;4912593;29;20134;-68
2023/12/07 08:23:58;;;;;;;10.93;6.40;;;6.50;96.70;;;;;;4888024;29;20155;-68
2023/12/07 08:26:28;;;;;;;9.27;6.65;;;6.40;96.70;;;;;;4873285;29;20104;-66
2023/12/07 08:28:56;;;;;;;10.10;6.20;;;6.40;96.70;;;;;;4878194;29;20052;-68
2023/12/07 08:31:27;;;;;;;9.45;6.72;;;6.50;96.70;;;;;;4879754;29;20048;-68
2023/12/07 08:33:56;;;;;;;10.45;6.97;;;6.50;96.70;;;;;;4856445;29;20117;-68
2023/12/07 08:36:25;;;;;;;11.48;7.30;;;6.40;96.70;;;;;;4879629;29;20090;-68
2023/12/07 08:38:55;;;;;;;11.38;7.03;;;6.50;96.70;;;;;;4833977;29;20077;-68
2023/12/07 08:41:24;;;;;;;10.98;7.13;;;6.60;96.70;;;;;;4857727;29;20056;-68
2023/12/07 08:43:53;;;;;;;11.45;7.30;;;6.60;96.70;;;;;;4860780;29;20627;-68
2023/12/07 08:46:22;;;;;;;10.40;6.72;;;6.60;96.70;;;;;;4874538;29;20568;-68
2023/12/07 08:48:53;;;;;;;10.30;6.65;;;6.70;96.70;;;;;;4863521;29;20054;-67
2023/12/07 08:51:22;;;;;;;10.40;6.75;;;6.70;96.70;;;;;;4852541;29;20174;-68
2023/12/07 08:53:51;;;;;;;13.38;6.72;;;6.80;96.70;;;;;;4842894;29;20080;-68
2023/12/07 08:56:23;;;;;;;10.55;6.07;;;6.60;96.70;;;;;;4844641;29;20061;-68
2023/12/07 08:58:52;;;;;;;8.82;5.78;;;6.60;96.70;;;;;;4845253;29;20048;-68
2023/12/07 09:01:21;;;;;;;10.98;6.53;;;6.60;96.70;;;;;;4870820;29;20754;-67
2023/12/07 09:04:01;;;;;;;9.88;6.40;;;6.60;96.70;;;;;;4845267;29;20064;-66
2023/12/07 09:06:33;;;;;;;10.25;6.63;;;6.60;96.70;;;;;;4869459;29;20538;-67
2023/12/07 09:09:04;;;;;;;10.85;6.90;;;6.60;96.70;;;;;;4844344;29;20393;-66
2023/12/07 09:11:33;;;;;;;9.82;6.15;;;6.60;96.70;;;;;;4866445;29;20044;-67
2023/12/07 09:14:02;;;;;;;11.93;7.07;;;6.60;96.70;;;;;;4879015;29;20108;-67
2023/12/07 09:16:32;;;;;;;9.57;6.50;;;6.60;96.70;;;;;;4875749;29;20044;-67
2023/12/07 09:19:02;;;;;;;10.35;6.93;;;6.60;96.70;;;;;;4882877;29;20063;-66
2023/12/07 09:21:32;;;;;;;10.05;6.22;;;6.60;96.70;;;;;;4856998;29;20083;-67
2023/12/07 09:24:00;;;;;;;10.10;5.45;;;6.70;96.70;;;;;;4881737;29;20155;-67
2023/12/07 09:26:28;;;;;;;8.25;5.55;;;6.70;96.70;;;;;;4908708;29;20055;-67
2023/12/07 09:28:58;;;;;;;10.27;6.38;;;6.80;96.70;;;;;;4895621;29;20143;-66
2023/12/07 09:31:29;;;;;;;9.40;6.07;;;6.70;96.70;;;;;;4876759;29;20139;-67
2023/12/07 09:34:03;;;;;;;9.13;6.22;;;6.70;96.70;;;;;;4882278;29;20052;-65
2023/12/07 09:36:39;;;;;;;8.70;5.50;;;6.80;96.70;;;;;;4898166;29;20055;-65
2023/12/07 09:39:09;;;;;;;10.27;6.25;;;6.80;96.70;;;;;;4888068;29;20072;-65
2023/12/07 09:41:41;;;;;;;8.57;6.18;;;6.80;96.70;;;;;;4892235;29;20043;-65
2023/12/07 09:44:11;;;;;;;8.13;5.40;;;6.80;96.70;;;;;;4889991;29;20048;-66
2023/12/07 09:46:40;;;;;;;8.77;6.38;;;6.80;96.70;;;;;;4894156;29;20044;-65
2023/12/07 09:49:12;;;;;;;8.57;5.75;;;6.80;96.70;;;;;;4897671;29;20426;-66
2023/12/07 09:51:42;;;;;;;11.70;6.53;;;6.80;96.70;;;;;;4868879;29;20059;-66
2023/12/07 09:54:11;;;;;;;9.93;6.57;;;6.90;96.70;;;;;;4915207;29;20086;-65
2023/12/07 09:56:41;;;;;;;10.85;6.10;;;7.00;96.70;;;;;;4887804;29;20063;-66
2023/12/07 09:59:09;;;;;;;8.32;5.95;;;7.00;96.70;;;;;;4907445;29;20048;-65
2023/12/07 10:01:39;;;;;;;10.50;6.78;;;7.00;96.70;;;;;;4890040;29;20048;-65
2023/12/07 10:04:20;;;;;;;9.82;6.38;;;7.00;96.70;;;;;;4885629;29;20055;-66
2023/12/07 10:06:51;;;;;;;9.18;6.65;;;7.00;96.70;;;;;;4891069;29;20052;-66
2023/12/07 10:09:21;;;;;;;10.32;6.40;;;7.00;96.70;;;;;;4914110;29;20044;-65
2023/12/07 10:12:03;;;;;;;9.45;6.18;;;6.90;96.70;;;;;;4907743;29;20079;-65
2023/12/07 10:14:31;;;;;;;10.20;7.13;;;7.00;96.70;;;;;;4891181;29;20056;-65
2023/12/07 10:17:00;;;;;;;8.85;6.05;;;7.10;96.70;;;;;;4889520;29;20071;-65
2023/12/07 10:19:30;;;;;;;9.90;6.10;;;7.10;96.70;;;;;;4897608;29;20056;-65
2023/12/07 10:22:02;;;;;;;8.35;5.85;;;7.10;96.70;;;;;;4890358;29;20056;-66
2023/12/07 10:24:31;;;;;;;9.27;6.22;;;7.10;96.70;;;;;;4885627;29;20143;-65
2023/12/07 10:26:59;;;;;;;9.90;6.00;;;7.10;96.70;;;;;;4912108;29;20406;-65
2023/12/07 10:29:36;;;;;;;9.50;6.47;;;7.20;96.70;;;;;;4894598;29;20040;-65
2023/12/07 10:32:06;;;;;;;10.02;6.93;;;7.20;96.70;;;;;;4914292;29;20055;-66
2023/12/07 10:34:37;;;;;;;8.73;6.68;;;7.30;96.70;;;;;;4898324;29;20583;-66
2023/12/07 10:37:06;;;;;;;10.20;6.70;;;7.30;96.70;;;;;;4912030;29;20107;-65
2023/12/07 10:39:37;;;;;;;10.63;8.00;;;7.30;96.70;;;;;;4899105;29;20048;-65
2023/12/07 10:42:11;;;;;;;10.88;7.50;;;7.30;96.70;;;;;;4909469;29;20059;-66
2023/12/07 10:44:45;;;;;;;10.27;6.85;;;7.20;96.70;;;;;;4908680;29;20502;-66
2023/12/07 10:47:15;;;;;;;9.30;6.38;;;7.20;96.70;;;;;;4906328;29;20059;-65
2023/12/07 10:49:50;;;;;;;13.60;7.60;;;7.30;96.70;;;;;;4899919;29;20044;-66
2023/12/07 10:52:25;;;;;;;12.13;6.60;;;7.30;96.70;;;;;;4890386;29;20056;-67
2023/12/07 10:55:04;;;;;;;7.80;5.85;;;7.30;96.70;;;;;;4885877;29;20048;-66
2023/12/07 10:57:37;;;;;;;8.90;5.55;;;7.30;96.70;;;;;;4911108;29;20048;-66
2023/12/07 11:00:08;;;;;;;8.88;6.35;;;7.40;96.70;;;;;;4901485;29;20122;-66
2023/12/07 11:02:41;;;;;;;8.02;5.53;;;7.30;96.70;;;;;;4903655;29;20063;-66
2023/12/07 11:05:12;;;;;;;8.77;6.20;;;7.40;96.70;;;;;;4903593;29;20502;-65
2023/12/07 11:07:56;;;;;;;8.18;5.85;;;7.50;96.70;;;;;;4891554;29;20063;-68
2023/12/07 11:10:31;;;;;;;9.10;6.18;;;7.60;96.70;;;;;;4897761;29;20068;-66
2023/12/07 11:13:11;;;;;;;8.02;5.68;;;7.60;96.70;;;;;;4898744;29;20056;-66
2023/12/07 11:15:40;;;;;;;8.18;5.82;;;7.70;96.70;;;;;;4893843;29;20063;-66
2023/12/07 11:18:08;;;;;;;8.10;5.78;;;7.70;96.70;;;;;;4875137;29;20456;-66
2023/12/07 11:20:47;;;;;;;7.78;5.82;;;7.70;96.70;;;;;;4901987;29;20481;-66
2023/12/07 11:23:18;;;;;;;8.13;5.95;;;7.70;96.70;;;;;;4885194;29;20067;-66
2023/12/07 11:25:51;;;;;;;8.68;6.45;;;7.70;96.70;;;;;;4895472;29;20056;-67
2023/12/07 11:28:34;;;;;;;8.57;6.03;;;7.60;96.70;;;;;;4915661;29;20032;-67
2023/12/07 11:31:03;;;;;;;8.77;6.45;;;7.70;96.70;;;;;;4892132;29;20048;-67
2023/12/07 11:33:33;;;;;;;8.00;6.20;;;7.70;96.70;;;;;;4881371;29;20052;-67
2023/12/07 11:36:08;;;;;;;7.82;5.75;;;7.70;96.70;;;;;;4892525;29;20514;-67
2023/12/07 11:38:37;;;;;;;7.03;5.90;;;7.80;96.70;;;;;;4900073;29;20075;-67
2023/12/07 11:41:06;;;;;;;8.35;5.45;;;7.80;96.70;;;;;;4893890;29;20075;-67
2023/12/07 11:43:43;;;;;;;7.68;5.25;;;7.70;96.70;;;;;;4883459;29;20048;-67
2023/12/07 11:46:14;;;;;;;7.47;5.47;;;7.70;96.70;;;;;;4904632;29;20058;-68
2023/12/07 11:48:50;;;;;;;8.15;6.32;;;7.80;96.70;;;;;;4910282;29;20078;-69
2023/12/07 11:51:21;;;;;;;8.55;6.40;;;7.80;96.70;;;;;;4898295;29;20059;-69
2023/12/07 11:53:50;;;;;;;7.93;5.85;;;7.80;96.70;;;;;;4893666;29;20146;-70
2023/12/07 11:56:20;;;;;;;7.80;5.78;;;7.80;96.70;;;;;;4859728;29;20065;-70
2023/12/07 11:58:50;;;;;;;6.57;5.13;;;7.80;96.70;;;;;;4841285;29;20052;-68
2023/12/07 12:01:18;;;;;;;7.93;6.00;;;7.80;96.70;;;;;;4833597;29;20051;-70
2023/12/07 12:03:47;;;;;;;10.40;6.90;;;7.90;96.70;;;;;;4859883;29;20563;-71
2023/12/07 12:06:17;;;;;;;7.63;5.50;;;7.90;96.70;;;;;;4844211;29;20053;-70
2023/12/07 12:08:48;;;;;;;7.93;5.30;;;7.90;96.70;;;;;;4850395;29;20167;-70
2023/12/07 12:11:17;;;;;;;9.18;5.53;;;8.00;96.70;;;;;;4840110;29;20056;-70
2023/12/07 12:13:50;;;;;;;8.07;4.63;;;8.10;96.70;;;;;;4843985;29;20053;-74
2023/12/07 12:16:20;;;;;;;8.63;5.75;;;8.00;96.70;;;;;;4841429;29;20072;-72
2023/12/07 12:18:49;;;;;;;7.00;4.88;;;8.00;96.70;;;;;;4828778;29;20050;-72
2023/12/07 12:21:17;;;;;;;8.23;5.18;;;8.00;96.70;;;;;;4838891;29;20052;-69
2023/12/07 12:23:51;;;;;;;5.78;4.68;;;8.10;96.70;;;;;;4844730;29;20077;-69
2023/12/07 12:26:21;;;;;;;6.13;4.63;;;8.10;96.70;;;;;;4854659;29;20049;-69
2023/12/07 12:28:52;;;;;;;7.35;5.20;;;8.10;96.70;;;;;;4856532;29;20132;-69
2023/12/07 12:31:22;;;;;;;6.95;4.72;;;8.00;96.70;;;;;;4842807;29;20060;-68
2023/12/07 12:33:51;;;;;;;6.30;4.65;;;8.00;96.70;;;;;;4888099;29;20059;-69
2023/12/07 12:36:26;;;;;;;6.13;4.85;;;8.20;96.70;;;;;;4897391;29;20040;-68
2023/12/07 12:38:57;;;;;;;6.35;4.35;;;8.20;96.70;;;;;;4899352;29;20040;-71
2023/12/07 12:41:25;;;;;;;7.05;5.13;;;8.10;96.70;;;;;;4899331;29;20052;-73
2023/12/07 12:43:53;;;;;;;5.63;4.88;;;8.20;96.70;;;;;;4900781;29;20151;-73
2023/12/07 12:46:22;;;;;;;6.65;5.60;;;8.20;96.70;;;;;;4911906;29;20047;-73
2023/12/07 12:48:57;;;;;;;8.07;5.57;;;8.10;96.70;;;;;;4898957;29;20075;-71
2023/12/07 12:51:28;;;;;;;6.50;5.70;;;8.10;96.70;;;;;;4893926;29;20139;-73
2023/12/07 12:53:59;;;;;;;8.05;5.40;;;8.10;96.70;;;;;;4894269;29;20142;-72
2023/12/07 12:56:29;;;;;;;7.90;5.25;;;8.20;96.70;;;;;;4893456;29;20658;-70
2023/12/07 12:58:59;;;;;;;6.50;5.40;;;8.40;96.70;;;;;;4891653;29;20463;-71
2023/12/07 13:01:33;;;;;;;5.57;4.97;;;8.30;96.70;;;;;;4915001;29;20564;-72
2023/12/07 13:04:02;;;;;;;6.60;5.10;;;8.40;96.70;;;;;;4896990;29;20098;-72
2023/12/07 13:06:32;;;;;;;6.97;5.70;;;8.40;96.70;;;;;;4898719;29;20085;-73
2023/12/07 13:09:02;;;;;;;9.60;5.43;;;8.40;96.70;;;;;;4863084;29;20048;-66